Time;durP1;ratioP1;P1;durP2;ratioP2;P2;SDS_P1;SDS_P2;PMS_P1;PMS_P2;Temp;Humidity;BMP_temperature;BMP_pressure;BME280_temperature;BME280_humidity;BME280_pressure;Samples;Min_cycle;Max_cycle;Signal;HPM_P1;HPM_P2
2020/12/08 13:12:50;;;;;;;25.35;16.70;;;;;;;;;;5065883;28;20304;-77
2020/12/08 13:15:16;;;;;;;24.63;16.30;;;;;;;;;;5050540;28;20081;-77
2020/12/08 13:17:42;;;;;;;24.58;16.25;;;;;;;;;;5065644;28;20081;-77
2020/12/08 13:20:08;;;;;;;25.02;16.50;;;;;;;;;;5066571;28;20089;-77
2020/12/08 13:22:34;;;;;;;24.00;16.27;;;;;;;;;;5065048;28;20025;-77
2020/12/08 13:25:00;;;;;;;25.40;17.90;;;;;;;;;;5065026;28;20081;-77
2020/12/08 13:27:27;;;;;;;24.75;16.60;;;;;;;;;;5065894;28;20028;-77
2020/12/08 13:29:53;;;;;;;26.15;16.48;;;;;;;;;;5065484;28;20115;-77
2020/12/08 13:32:19;;;;;;;27.38;17.40;;;;;;;;;;5065240;28;20120;-77
2020/12/08 13:34:45;;;;;;;26.00;17.30;;;;;;;;;;5070226;28;20073;-77
2020/12/08 13:37:11;;;;;;;27.08;17.90;;;;;;;;;;5064960;28;20111;-77
2020/12/08 13:39:37;;;;;;;25.90;17.40;;;;;;;;;;5064759;28;20457;-77
2020/12/08 13:42:03;;;;;;;25.67;17.38;;;;;;;;;;5066141;28;20037;-77
2020/12/08 13:44:29;;;;;;;25.80;16.88;;;;;;;;;;5064873;28;20042;-77
2020/12/08 13:46:56;;;;;;;24.50;16.67;;;;;;;;;;5064946;28;20059;-76
2020/12/08 13:49:23;;;;;;;24.67;16.52;;;;;;;;;;5065635;28;20040;-77
2020/12/08 13:51:49;;;;;;;27.05;17.23;;;;;;;;;;5065623;28;20585;-77
2020/12/08 13:54:15;;;;;;;26.45;17.88;;;;;;;;;;5065644;28;20060;-77
2020/12/08 13:56:41;;;;;;;25.60;16.52;;;;;;;;;;5064004;28;20032;-77
2020/12/08 13:59:07;;;;;;;27.38;17.80;;;;;;;;;;5065397;28;20029;-77
2020/12/08 14:01:33;;;;;;;25.63;17.17;;;;;;;;;;5065462;28;20033;-77
2020/12/08 14:03:59;;;;;;;26.42;17.13;;;;;;;;;;5064327;28;20507;-77
2020/12/08 14:06:25;;;;;;;26.27;16.83;;;;;;;;;;5063271;28;20035;-77
2020/12/08 14:08:52;;;;;;;26.45;17.48;;;;;;;;;;5065464;28;20033;-77
2020/12/08 14:11:18;;;;;;;25.75;16.77;;;;;;;;;;5065267;28;20377;-77
2020/12/08 14:13:44;;;;;;;27.58;17.83;;;;;;;;;;5065349;28;20058;-76
2020/12/08 14:16:10;;;;;;;27.35;16.38;;;;;;;;;;5064697;28;20029;-76
2020/12/08 14:18:36;;;;;;;26.20;17.27;;;;;;;;;;5065183;28;20104;-77
2020/12/08 14:21:02;;;;;;;30.58;18.00;;;;;;;;;;5063969;28;20108;-77
2020/12/08 14:23:28;;;;;;;28.50;17.83;;;;;;;;;;5055565;28;20029;-77
2020/12/08 14:25:54;;;;;;;27.33;17.80;;;;;;;;;;5051602;28;20621;-76
2020/12/08 14:28:20;;;;;;;26.42;17.23;;;;;;;;;;5050707;28;20040;-76
2020/12/08 14:30:46;;;;;;;27.52;17.15;;;;;;;;;;5051203;28;20464;-76
2020/12/08 14:33:13;;;;;;;26.77;17.85;;;;;;;;;;5051188;28;20025;-76
2020/12/08 14:35:39;;;;;;;28.27;18.50;;;;;;;;;;5049969;28;20028;-76
2020/12/08 14:38:05;;;;;;;28.90;18.65;;;;;;;;;;5050401;28;20108;-76
2020/12/08 14:40:31;;;;;;;29.10;18.77;;;;;;;;;;5050077;28;20524;-76
2020/12/08 14:42:57;;;;;;;29.90;18.40;;;;;;;;;;5049915;28;20029;-76
2020/12/08 14:45:23;;;;;;;29.27;18.77;;;;;;;;;;5049920;28;20029;-76
2020/12/08 14:47:49;;;;;;;30.67;18.67;;;;;;;;;;5050587;28;20044;-76
2020/12/08 14:50:16;;;;;;;28.23;17.63;;;;;;;;;;5051145;28;20030;-76
2020/12/08 14:52:42;;;;;;;29.23;18.27;;;;;;;;;;5049504;28;20032;-76
2020/12/08 14:55:08;;;;;;;28.35;17.38;;;;;;;;;;5049490;28;20021;-76
2020/12/08 14:57:37;;;;;;;33.22;20.73;;;;;;;;;;5050128;28;20043;-76
2020/12/08 15:00:06;;;;;;;31.80;19.85;;;;;;;;;;5050999;28;20077;-76
2020/12/08 15:02:33;;;;;;;27.02;18.73;;;;;;;;;;5049511;28;20077;-76
2020/12/08 15:04:59;;;;;;;34.28;19.48;;;;;;;;;;5049442;28;20029;-76
2020/12/08 15:07:25;;;;;;;31.98;19.63;;;;;;;;;;5049100;28;20100;-76
2020/12/08 15:09:51;;;;;;;28.67;19.13;;;;;;;;;;5053845;28;20116;-76
2020/12/08 15:12:17;;;;;;;30.40;19.75;;;;;;;;;;5051805;28;20059;-76
2020/12/08 15:14:43;;;;;;;28.00;18.17;;;;;;;;;;5053939;28;20025;-77
2020/12/08 15:17:09;;;;;;;30.95;19.00;;;;;;;;;;5049712;28;20029;-76
2020/12/08 15:19:35;;;;;;;32.17;20.30;;;;;;;;;;5050389;28;20489;-76
2020/12/08 15:22:01;;;;;;;30.38;20.33;;;;;;;;;;5050240;28;20033;-76
2020/12/08 15:24:27;;;;;;;33.17;22.05;;;;;;;;;;5032526;28;20033;-76
2020/12/08 15:26:54;;;;;;;32.97;21.92;;;;;;;;;;5048678;28;20370;-76
2020/12/08 15:29:20;;;;;;;33.78;20.70;;;;;;;;;;5048936;28;20032;-76
2020/12/08 15:31:46;;;;;;;32.67;20.23;;;;;;;;;;5050219;28;20508;-76
2020/12/08 15:34:12;;;;;;;34.85;22.25;;;;;;;;;;5048097;28;20028;-76
2020/12/08 15:36:38;;;;;;;34.63;21.38;;;;;;;;;;5029462;28;20083;-76
2020/12/08 15:39:06;;;;;;;36.40;22.40;;;;;;;;;;5029127;28;20030;-76
2020/12/08 15:41:32;;;;;;;38.60;21.13;;;;;;;;;;5012945;28;20032;-76
2020/12/08 15:43:58;;;;;;;39.47;22.92;;;;;;;;;;5030073;28;20438;-76
2020/12/08 15:46:25;;;;;;;49.15;26.85;;;;;;;;;;5029494;28;20026;-76
2020/12/08 15:48:51;;;;;;;38.38;23.95;;;;;;;;;;5028772;28;20481;-76
2020/12/08 15:51:18;;;;;;;38.58;23.17;;;;;;;;;;5029784;28;20065;-76
2020/12/08 15:53:45;;;;;;;38.10;23.80;;;;;;;;;;5029778;28;20021;-74
2020/12/08 15:56:11;;;;;;;41.22;23.98;;;;;;;;;;5029396;28;20022;-74
2020/12/08 15:58:37;;;;;;;40.88;24.88;;;;;;;;;;5029691;28;20501;-74
2020/12/08 16:01:03;;;;;;;40.40;25.00;;;;;;;;;;5030802;28;20078;-78
2020/12/08 16:03:29;;;;;;;47.65;27.42;;;;;;;;;;5029087;28;20032;-78
2020/12/08 16:05:55;;;;;;;55.55;31.15;;;;;;;;;;5042177;23;20566;-76
2020/12/08 16:08:21;;;;;;;44.13;24.88;;;;;;;;;;5009160;28;20030;-76
2020/12/08 16:10:47;;;;;;;44.20;25.70;;;;;;;;;;5025474;28;20026;-76
2020/12/08 16:13:13;;;;;;;36.03;21.63;;;;;;;;;;5010557;28;20039;-75
2020/12/08 16:15:39;;;;;;;38.70;21.70;;;;;;;;;;5011243;28;20063;-76
2020/12/08 16:18:05;;;;;;;40.05;22.67;;;;;;;;;;5010642;28;20022;-76
2020/12/08 16:20:31;;;;;;;44.58;25.67;;;;;;;;;;5016467;28;20025;-76
2020/12/08 16:22:58;;;;;;;47.42;28.23;;;;;;;;;;5015497;28;20018;-76
2020/12/08 16:25:24;;;;;;;41.35;25.42;;;;;;;;;;5009974;28;20026;-75
2020/12/08 16:27:50;;;;;;;41.33;24.30;;;;;;;;;;5008964;28;20022;-77
2020/12/08 16:30:17;;;;;;;37.58;23.80;;;;;;;;;;5006841;28;20109;-79
2020/12/08 16:32:43;;;;;;;40.58;25.02;;;;;;;;;;4988057;28;20108;-76
2020/12/08 16:35:10;;;;;;;43.45;23.95;;;;;;;;;;4996705;28;20022;-77
2020/12/08 16:37:36;;;;;;;37.60;22.17;;;;;;;;;;5008546;28;20072;-76
2020/12/08 16:40:07;;;;;;;38.97;23.90;;;;;;;;;;5009169;28;20014;-77
2020/12/08 16:42:33;;;;;;;44.50;24.50;;;;;;;;;;5009002;28;20030;-76
2020/12/08 16:44:59;;;;;;;42.45;24.90;;;;;;;;;;5009158;28;20037;-78
2020/12/08 16:47:25;;;;;;;48.88;25.20;;;;;;;;;;5079402;28;20028;-78
2020/12/08 16:49:51;;;;;;;41.58;24.60;;;;;;;;;;5106997;28;20036;-77
2020/12/08 16:52:17;;;;;;;45.45;25.83;;;;;;;;;;5107733;28;20032;-78
2020/12/08 16:54:43;;;;;;;46.60;26.30;;;;;;;;;;5109692;28;20184;-78
2020/12/08 16:57:09;;;;;;;44.40;25.23;;;;;;;;;;5107760;28;20024;-77
2020/12/08 16:59:35;;;;;;;45.03;25.48;;;;;;;;;;5108932;28;20031;-77
2020/12/08 17:02:01;;;;;;;43.75;26.70;;;;;;;;;;5109546;28;20036;-78
2020/12/08 17:04:27;;;;;;;48.35;28.70;;;;;;;;;;5100243;28;20050;-77
2020/12/08 17:06:53;;;;;;;52.65;28.52;;;;;;;;;;5004053;28;20263;-77
2020/12/08 17:09:21;;;;;;;52.60;28.75;;;;;;;;;;5005734;28;20034;-77
2020/12/08 17:11:47;;;;;;;51.30;28.45;;;;;;;;;;5004849;28;20493;-76
2020/12/08 17:14:13;;;;;;;53.17;28.98;;;;;;;;;;5004923;28;20022;-78
2020/12/08 17:16:39;;;;;;;54.83;29.55;;;;;;;;;;5006429;28;20034;-77
2020/12/08 17:19:05;;;;;;;54.70;30.23;;;;;;;;;;5005820;28;20100;-77
2020/12/08 17:21:32;;;;;;;50.90;27.10;;;;;;;;;;5005551;28;20034;-77
2020/12/08 17:23:58;;;;;;;47.17;27.77;;;;;;;;;;5005655;28;20030;-76
2020/12/08 17:26:24;;;;;;;43.17;25.50;;;;;;;;;;5004346;28;20508;-78
2020/12/08 17:28:50;;;;;;;46.05;27.00;;;;;;;;;;5005201;28;20088;-78
2020/12/08 17:31:16;;;;;;;45.92;28.15;;;;;;;;;;5004340;28;20486;-78
2020/12/08 17:33:42;;;;;;;37.75;24.35;;;;;;;;;;5003777;28;20034;-77
2020/12/08 17:36:08;;;;;;;39.72;24.27;;;;;;;;;;5004214;28;20014;-77
2020/12/08 17:38:34;;;;;;;38.47;22.90;;;;;;;;;;5004510;28;20107;-77
2020/12/08 17:41:00;;;;;;;38.22;23.30;;;;;;;;;;5003704;28;20509;-77
2020/12/08 17:43:26;;;;;;;40.00;24.10;;;;;;;;;;5005113;28;20034;-78
2020/12/08 17:45:52;;;;;;;37.95;23.55;;;;;;;;;;5004562;28;20823;-77
2020/12/08 17:48:18;;;;;;;37.83;23.42;;;;;;;;;;5004071;28;20041;-77
2020/12/08 17:50:45;;;;;;;40.63;24.92;;;;;;;;;;4996282;28;20030;-77
2020/12/08 17:53:11;;;;;;;36.47;22.10;;;;;;;;;;4992827;28;20607;-76
2020/12/08 17:55:36;;;;;;;38.53;23.30;;;;;;;;;;4996406;28;20150;-78
2020/12/08 17:58:03;;;;;;;45.35;27.48;;;;;;;;;;4995042;28;20023;-77
2020/12/08 18:00:29;;;;;;;35.20;21.60;;;;;;;;;;4996380;28;20106;-77
2020/12/08 18:02:55;;;;;;;41.38;23.60;;;;;;;;;;4996130;28;20023;-78
2020/12/08 18:05:20;;;;;;;34.53;21.33;;;;;;;;;;4999283;28;20022;-77
2020/12/08 18:07:46;;;;;;;34.25;20.70;;;;;;;;;;4978442;28;20061;-78
2020/12/08 18:10:14;;;;;;;39.50;24.60;;;;;;;;;;4998616;28;20038;-77
2020/12/08 18:12:41;;;;;;;38.13;23.17;;;;;;;;;;4997027;28;20722;-77
2020/12/08 18:15:07;;;;;;;39.00;23.05;;;;;;;;;;4995360;28;20029;-79
2020/12/08 18:17:33;;;;;;;38.47;22.75;;;;;;;;;;4997397;28;20026;-77
2020/12/08 18:19:59;;;;;;;36.72;22.95;;;;;;;;;;4996742;28;20101;-77
2020/12/08 18:22:25;;;;;;;40.90;24.10;;;;;;;;;;5000980;28;20516;-77
2020/12/08 18:24:51;;;;;;;40.72;24.25;;;;;;;;;;5007729;28;20022;-76
2020/12/08 18:27:17;;;;;;;43.95;25.60;;;;;;;;;;5005293;28;20026;-76
2020/12/08 18:29:44;;;;;;;44.67;26.55;;;;;;;;;;5006864;28;20041;-76
2020/12/08 18:32:11;;;;;;;45.17;25.85;;;;;;;;;;5003958;28;20064;-76
2020/12/08 18:34:39;;;;;;;42.03;24.48;;;;;;;;;;4990390;28;20075;-77
2020/12/08 18:37:05;;;;;;;47.83;27.20;;;;;;;;;;5006271;28;20503;-76
2020/12/08 18:39:31;;;;;;;45.83;25.90;;;;;;;;;;5006463;28;20987;-74
2020/12/08 18:41:57;;;;;;;49.80;29.35;;;;;;;;;;5005902;28;20086;-74
2020/12/08 18:44:26;;;;;;;52.58;28.60;;;;;;;;;;5009603;28;20400;-75
2020/12/08 18:46:56;;;;;;;45.88;27.00;;;;;;;;;;4987110;28;20486;-75
2020/12/08 18:49:23;;;;;;;48.55;27.67;;;;;;;;;;4993918;28;20489;-74
2020/12/08 18:51:49;;;;;;;47.72;26.48;;;;;;;;;;5010398;28;20107;-74
2020/12/08 18:54:15;;;;;;;53.60;29.10;;;;;;;;;;4979456;28;20062;-75
2020/12/08 18:56:41;;;;;;;48.22;25.88;;;;;;;;;;4989996;28;20015;-74
2020/12/08 18:59:07;;;;;;;45.38;25.30;;;;;;;;;;4990278;28;20035;-74
2020/12/08 19:01:33;;;;;;;47.08;24.75;;;;;;;;;;4990616;28;20078;-74
2020/12/08 19:03:59;;;;;;;44.08;23.85;;;;;;;;;;4991046;28;20031;-75
2020/12/08 19:06:26;;;;;;;48.80;27.15;;;;;;;;;;5007175;28;20577;-74
2020/12/08 19:08:51;;;;;;;53.88;29.08;;;;;;;;;;5008334;28;20033;-75
